Time;durP1;ratioP1;P1;durP2;ratioP2;P2;SDS_P1;SDS_P2;PMS_P1;PMS_P2;Temp;Humidity;BMP_temperature;BMP_pressure;BME280_temperature;BME280_humidity;BME280_pressure;Samples;Min_cycle;Max_cycle;Signal;HPM_P1;HPM_P2
2021/09/10 00:00:05;;;;;;;9.02;5.95;;;14.30;99.90;;;;;;4993118;28;20022;-42
2021/09/10 00:02:31;;;;;;;12.20;6.35;;;14.30;99.90;;;;;;4992899;28;20031;-43
2021/09/10 00:04:56;;;;;;;7.85;6.18;;;14.30;99.90;;;;;;4993115;28;20038;-42
2021/09/10 00:07:22;;;;;;;7.20;4.75;;;14.30;99.90;;;;;;4992872;28;20039;-40
2021/09/10 00:09:47;;;;;;;7.03;5.38;;;14.30;99.90;;;;;;4991837;28;20470;-40
2021/09/10 00:12:13;;;;;;;7.85;6.07;;;14.40;99.90;;;;;;4992888;28;20038;-39
2021/09/10 00:14:38;;;;;;;5.97;5.38;;;14.40;99.90;;;;;;4982342;28;20031;-39
2021/09/10 00:17:04;;;;;;;7.70;5.90;;;14.40;99.90;;;;;;4973405;28;20102;-40
2021/09/10 00:19:30;;;;;;;10.88;6.60;;;14.40;99.90;;;;;;4973721;28;20419;-40
2021/09/10 00:21:55;;;;;;;7.32;5.78;;;14.40;99.90;;;;;;4973382;28;20031;-40
2021/09/10 00:24:21;;;;;;;6.80;5.22;;;14.40;99.90;;;;;;4972112;28;20124;-42
2021/09/10 00:26:46;;;;;;;9.80;5.88;;;14.40;99.90;;;;;;4974831;28;20102;-38
2021/09/10 00:29:12;;;;;;;7.57;5.53;;;14.40;99.90;;;;;;4977229;28;20023;-42
2021/09/10 00:31:37;;;;;;;6.13;5.47;;;14.40;99.90;;;;;;4977125;28;20027;-41
2021/09/10 00:34:03;;;;;;;10.50;5.70;;;14.40;99.90;;;;;;4977169;28;20546;-44
2021/09/10 00:36:28;;;;;;;7.47;5.55;;;14.40;99.90;;;;;;4976864;28;20035;-42
2021/09/10 00:38:54;;;;;;;7.13;5.90;;;14.30;99.90;;;;;;4975904;28;20051;-40
2021/09/10 00:41:19;;;;;;;7.75;5.68;;;14.30;99.90;;;;;;4976818;28;20054;-39
2021/09/10 00:43:45;;;;;;;8.27;5.82;;;14.30;99.90;;;;;;4992448;28;20057;-43
2021/09/10 00:46:10;;;;;;;8.15;5.60;;;14.30;99.90;;;;;;4996322;28;20022;-42
2021/09/10 00:48:38;;;;;;;6.75;4.82;;;14.30;99.90;;;;;;4996186;28;20103;-42
2021/09/10 00:51:03;;;;;;;5.63;4.75;;;14.30;99.90;;;;;;4996191;28;20031;-41
2021/09/10 00:53:29;;;;;;;7.03;6.25;;;14.30;99.90;;;;;;4994824;28;20033;-44
2021/09/10 00:55:54;;;;;;;7.82;5.43;;;14.30;99.90;;;;;;4996095;28;20110;-41
2021/09/10 00:58:20;;;;;;;7.40;5.95;;;14.30;99.90;;;;;;4996177;28;20034;-39
2021/09/10 01:00:45;;;;;;;7.18;6.28;;;14.20;99.90;;;;;;4996078;28;20541;-42
2021/09/10 01:03:12;;;;;;;11.73;7.00;;;14.20;99.90;;;;;;4995784;28;20402;-40
2021/09/10 01:05:40;;;;;;;7.45;5.78;;;14.20;99.90;;;;;;4996035;28;20049;-42
2021/09/10 01:08:07;;;;;;;9.75;5.72;;;14.20;99.90;;;;;;4995836;28;20363;-44
2021/09/10 01:10:33;;;;;;;7.60;5.90;;;14.20;99.90;;;;;;4994532;28;20167;-39
2021/09/10 01:13:00;;;;;;;8.60;6.32;;;14.20;99.90;;;;;;4995838;28;20038;-43
2021/09/10 01:15:26;;;;;;;6.50;4.97;;;14.20;99.90;;;;;;4978613;28;20458;-40
2021/09/10 01:17:52;;;;;;;9.63;6.18;;;14.20;99.90;;;;;;4976365;28;20432;-42
2021/09/10 01:20:18;;;;;;;8.63;5.05;;;14.10;99.90;;;;;;4976205;28;20065;-39
2021/09/10 01:22:43;;;;;;;11.05;5.53;;;14.10;99.90;;;;;;4975980;28;20037;-39
2021/09/10 01:25:13;;;;;;;8.82;5.45;;;14.00;99.90;;;;;;4974977;28;20030;-40
2021/09/10 01:27:44;;;;;;;7.38;5.55;;;14.00;99.90;;;;;;4976074;28;20026;-42
2021/09/10 01:30:12;;;;;;;7.25;6.03;;;14.00;99.90;;;;;;4974785;28;20027;-42
2021/09/10 01:32:38;;;;;;;8.45;6.20;;;14.00;99.90;;;;;;4975968;28;20031;-40
2021/09/10 01:35:04;;;;;;;5.85;5.25;;;14.00;99.90;;;;;;4976095;28;20027;-41
2021/09/10 01:37:30;;;;;;;8.00;6.63;;;14.00;99.90;;;;;;4975324;28;20035;-40
2021/09/10 01:39:55;;;;;;;6.68;5.50;;;14.00;99.90;;;;;;4974086;28;20092;-42
2021/09/10 01:42:21;;;;;;;9.30;6.43;;;13.90;99.90;;;;;;4979593;28;20106;-41
2021/09/10 01:44:46;;;;;;;9.00;5.53;;;13.90;99.90;;;;;;4995369;28;20018;-40
2021/09/10 01:47:12;;;;;;;6.45;5.43;;;13.90;99.90;;;;;;4994683;28;20047;-39
2021/09/10 01:49:37;;;;;;;7.85;5.55;;;13.80;99.90;;;;;;4995284;28;20031;-45
2021/09/10 01:52:03;;;;;;;9.57;5.80;;;13.80;99.90;;;;;;4995084;28;20037;-42
2021/09/10 01:54:29;;;;;;;11.18;5.95;;;13.80;99.90;;;;;;4993670;28;20034;-40
2021/09/10 01:56:55;;;;;;;7.72;5.30;;;13.80;99.90;;;;;;4994962;28;20027;-39
2021/09/10 01:59:20;;;;;;;7.10;5.57;;;13.80;99.90;;;;;;4994930;28;20105;-40
2021/09/10 02:01:46;;;;;;;6.25;5.65;;;13.80;99.90;;;;;;4994865;28;20470;-39
2021/09/10 02:04:11;;;;;;;7.30;5.57;;;13.70;99.90;;;;;;4994883;28;20077;-44
2021/09/10 02:06:37;;;;;;;6.63;4.97;;;13.70;99.90;;;;;;4994806;28;20393;-39
2021/09/10 02:09:03;;;;;;;8.82;6.88;;;13.70;99.90;;;;;;4993470;28;20030;-40
2021/09/10 02:11:28;;;;;;;7.43;6.10;;;13.70;99.90;;;;;;4994765;28;20032;-40
2021/09/10 02:13:54;;;;;;;8.80;6.82;;;13.60;99.90;;;;;;4994431;28;20094;-40
2021/09/10 02:16:20;;;;;;;7.90;5.78;;;13.60;99.90;;;;;;4993400;28;20031;-40
2021/09/10 02:18:45;;;;;;;8.88;6.95;;;13.60;99.90;;;;;;4994586;28;20033;-39
2021/09/10 02:21:11;;;;;;;8.57;6.47;;;13.60;99.90;;;;;;4994670;28;20045;-40
2021/09/10 02:23:36;;;;;;;7.45;5.97;;;13.60;99.90;;;;;;4992997;28;20037;-40
2021/09/10 02:26:03;;;;;;;7.80;6.47;;;13.60;99.90;;;;;;4994825;28;20093;-39
2021/09/10 02:28:29;;;;;;;9.38;6.82;;;13.50;99.90;;;;;;4994246;28;20030;-39
2021/09/10 02:30:54;;;;;;;10.65;6.65;;;13.50;99.90;;;;;;4994433;28;20025;-39
2021/09/10 02:33:20;;;;;;;8.77;5.85;;;13.50;99.90;;;;;;4994305;28;20042;-42
2021/09/10 02:35:46;;;;;;;6.88;5.53;;;13.50;99.90;;;;;;4994297;28;20027;-42
2021/09/10 02:38:11;;;;;;;7.10;5.80;;;13.40;99.90;;;;;;4994247;28;20033;-43
2021/09/10 02:40:37;;;;;;;11.15;6.30;;;13.40;99.90;;;;;;4992815;28;20390;-42
2021/09/10 02:43:03;;;;;;;7.97;5.70;;;13.40;99.90;;;;;;4993907;28;20070;-40
2021/09/10 02:45:28;;;;;;;8.10;6.53;;;13.40;99.90;;;;;;4994120;28;20022;-39
2021/09/10 02:47:54;;;;;;;8.98;5.72;;;13.40;99.90;;;;;;4993839;28;20039;-41
2021/09/10 02:50:20;;;;;;;6.82;5.30;;;13.40;99.90;;;;;;4994121;28;20023;-45
2021/09/10 02:52:45;;;;;;;7.10;5.50;;;13.30;99.90;;;;;;4993968;28;20054;-42
2021/09/10 02:55:11;;;;;;;7.65;6.00;;;13.30;99.90;;;;;;4992598;28;20072;-40
2021/09/10 02:57:37;;;;;;;7.25;5.70;;;13.30;99.90;;;;;;4993700;28;20034;-39
2021/09/10 03:00:04;;;;;;;8.25;6.40;;;13.30;99.90;;;;;;4993952;28;20374;-44
2021/09/10 03:02:30;;;;;;;8.90;6.03;;;13.30;99.90;;;;;;4993757;28;20481;-42
2021/09/10 03:04:55;;;;;;;10.57;6.72;;;13.30;99.90;;;;;;4993778;28;20023;-41
2021/09/10 03:07:21;;;;;;;10.38;5.10;;;13.30;99.90;;;;;;4993643;28;20042;-40
2021/09/10 03:09:46;;;;;;;8.45;6.40;;;13.20;99.90;;;;;;4992330;28;20076;-44
2021/09/10 03:12:12;;;;;;;9.10;7.22;;;13.20;99.90;;;;;;4993625;28;20030;-40
2021/09/10 03:14:38;;;;;;;8.77;5.88;;;13.20;99.90;;;;;;4982821;28;20023;-46
2021/09/10 03:17:03;;;;;;;8.32;6.20;;;13.20;99.90;;;;;;4974386;28;20382;-40
2021/09/10 03:19:29;;;;;;;7.20;5.80;;;13.20;99.90;;;;;;4974145;28;20019;-41
2021/09/10 03:21:54;;;;;;;12.00;7.72;;;13.20;99.90;;;;;;4974182;28;20033;-40
2021/09/10 03:24:21;;;;;;;8.02;6.20;;;13.10;99.90;;;;;;4972689;28;20069;-40
2021/09/10 03:26:47;;;;;;;7.20;5.70;;;13.10;99.90;;;;;;4974021;28;20397;-41
2021/09/10 03:29:12;;;;;;;9.80;6.75;;;13.10;99.90;;;;;;4973925;28;20023;-40
2021/09/10 03:31:39;;;;;;;11.05;6.43;;;13.10;99.90;;;;;;4974001;28;20027;-40
2021/09/10 03:34:04;;;;;;;10.73;7.72;;;13.00;99.90;;;;;;4973936;28;20037;-42
2021/09/10 03:36:30;;;;;;;8.70;7.22;;;13.00;99.90;;;;;;4973942;28;20760;-40
2021/09/10 03:38:55;;;;;;;8.32;6.57;;;13.00;99.90;;;;;;4972715;28;20386;-42
2021/09/10 03:41:21;;;;;;;12.00;7.22;;;13.00;99.90;;;;;;4972668;28;20038;-42
2021/09/10 03:43:49;;;;;;;10.77;7.80;;;13.00;99.90;;;;;;4989091;28;20061;-41
2021/09/10 03:46:15;;;;;;;8.57;6.18;;;13.00;99.90;;;;;;4993288;28;20023;-43
2021/09/10 03:48:41;;;;;;;7.82;5.95;;;13.00;99.90;;;;;;4993192;28;20088;-42
2021/09/10 03:51:06;;;;;;;6.97;6.18;;;12.90;99.90;;;;;;4993309;28;20065;-42
2021/09/10 03:53:32;;;;;;;7.60;6.38;;;12.90;99.90;;;;;;4991920;28;20042;-42
2021/09/10 03:55:58;;;;;;;12.25;7.38;;;12.90;99.90;;;;;;4993099;28;20092;-41
2021/09/10 03:58:23;;;;;;;7.85;6.65;;;12.80;99.90;;;;;;4993043;28;20042;-45
2021/09/10 04:00:49;;;;;;;12.52;7.97;;;12.90;99.90;;;;;;4993177;28;20038;-41
2021/09/10 04:03:14;;;;;;;9.73;7.13;;;12.80;99.90;;;;;;4993688;28;20034;-42
2021/09/10 04:05:40;;;;;;;12.43;7.85;;;12.90;99.90;;;;;;4994532;28;20035;-39
2021/09/10 04:08:05;;;;;;;11.18;7.70;;;12.90;99.90;;;;;;4996921;28;20010;-42
2021/09/10 04:10:31;;;;;;;8.63;6.75;;;12.90;99.90;;;;;;4995323;28;20061;-44
2021/09/10 04:12:56;;;;;;;8.55;6.78;;;12.80;99.90;;;;;;4996409;28;20056;-44
2021/09/10 04:15:22;;;;;;;10.02;7.47;;;12.80;99.90;;;;;;4996389;28;20461;-40
2021/09/10 04:17:47;;;;;;;12.30;7.43;;;12.80;99.90;;;;;;4996605;28;20031;-41
2021/09/10 04:20:13;;;;;;;11.25;7.35;;;12.90;99.90;;;;;;4996653;28;20026;-40
2021/09/10 04:22:42;;;;;;;8.93;7.15;;;12.90;99.90;;;;;;4996481;28;20073;-42
2021/09/10 04:25:08;;;;;;;9.38;6.78;;;12.90;99.90;;;;;;4994962;28;20379;-40
2021/09/10 04:27:34;;;;;;;8.15;6.55;;;12.90;99.90;;;;;;4996121;28;20023;-41
2021/09/10 04:30:00;;;;;;;7.88;7.07;;;12.80;99.90;;;;;;4996382;28;20033;-40
2021/09/10 04:32:25;;;;;;;12.00;8.52;;;12.90;99.90;;;;;;4996492;28;20026;-41
2021/09/10 04:34:51;;;;;;;9.00;6.50;;;12.80;99.90;;;;;;4996388;28;20027;-43
2021/09/10 04:37:17;;;;;;;7.95;6.95;;;12.90;99.90;;;;;;4996608;28;20477;-41
2021/09/10 04:39:42;;;;;;;8.85;7.20;;;12.90;99.90;;;;;;4995033;28;20030;-40
2021/09/10 04:42:09;;;;;;;11.48;6.68;;;12.80;99.90;;;;;;4996185;28;20023;-40
2021/09/10 04:44:34;;;;;;;9.50;7.80;;;12.90;99.90;;;;;;4994946;28;20033;-45
2021/09/10 04:47:00;;;;;;;9.15;6.50;;;12.90;99.90;;;;;;4996181;28;20034;-41
2021/09/10 04:49:25;;;;;;;7.35;5.72;;;13.00;99.90;;;;;;4996243;28;20496;-42
2021/09/10 04:51:51;;;;;;;8.88;7.00;;;13.00;99.90;;;;;;4994004;28;20031;-41
2021/09/10 04:54:16;;;;;;;13.13;7.05;;;13.00;99.90;;;;;;4993025;28;20031;-39
2021/09/10 04:56:45;;;;;;;11.93;7.35;;;13.10;99.90;;;;;;4995817;28;20022;-42
2021/09/10 04:59:11;;;;;;;9.90;7.72;;;13.10;99.90;;;;;;4995882;28;20073;-42
2021/09/10 05:01:37;;;;;;;9.15;6.70;;;13.20;99.90;;;;;;4995668;28;20026;-40
2021/09/10 05:04:02;;;;;;;10.98;6.13;;;13.30;99.90;;;;;;4995933;28;20037;-40
2021/09/10 05:06:28;;;;;;;9.40;7.63;;;13.30;99.90;;;;;;4996175;28;20031;-43
2021/09/10 05:08:54;;;;;;;8.68;6.57;;;13.40;99.90;;;;;;4994500;28;20019;-42
2021/09/10 05:11:20;;;;;;;9.20;6.93;;;13.50;99.90;;;;;;4995757;28;20367;-39
2021/09/10 05:13:45;;;;;;;9.27;6.38;;;13.60;99.90;;;;;;4995232;28;20037;-41
2021/09/10 05:16:11;;;;;;;8.48;6.88;;;13.70;99.90;;;;;;4995832;28;20442;-43
2021/09/10 05:18:36;;;;;;;9.43;6.28;;;13.80;99.90;;;;;;4995831;28;20057;-40
2021/09/10 05:21:02;;;;;;;9.05;6.55;;;13.90;99.90;;;;;;4995625;28;20230;-40
2021/09/10 05:23:27;;;;;;;9.10;6.90;;;14.10;99.90;;;;;;4994429;28;20026;-43
2021/09/10 05:25:53;;;;;;;8.52;6.18;;;14.20;99.90;;;;;;4995386;28;20034;-40
2021/09/10 05:28:18;;;;;;;12.13;7.43;;;15.00;99.90;;;;;;4995553;28;20030;-40
2021/09/10 05:30:44;;;;;;;8.27;6.15;;;15.90;99.90;;;;;;4995413;28;20146;-40
2021/09/10 05:33:09;;;;;;;9.35;6.85;;;17.00;99.90;;;;;;4995606;28;20038;-40
2021/09/10 05:35:34;;;;;;;10.35;6.75;;;17.90;99.90;;;;;;4995359;28;20410;-40
2021/09/10 05:38:00;;;;;;;13.27;6.30;;;18.70;99.90;;;;;;4995540;28;20046;-41
2021/09/10 05:40:26;;;;;;;7.45;5.60;;;19.40;99.90;;;;;;4993979;28;20037;-42
2021/09/10 05:42:51;;;;;;;7.82;5.88;;;20.00;99.90;;;;;;4995048;28;20062;-46
2021/09/10 05:45:17;;;;;;;10.68;6.68;;;20.40;99.90;;;;;;4995357;28;20031;-43
2021/09/10 05:47:43;;;;;;;7.00;6.00;;;20.60;99.90;;;;;;4995147;28;20512;-47
2021/09/10 05:50:08;;;;;;;9.88;5.30;;;20.30;99.90;;;;;;4995202;28;20366;-43
2021/09/10 05:52:34;;;;;;;8.20;5.43;;;19.90;99.90;;;;;;4995274;28;20038;-41
2021/09/10 05:54:59;;;;;;;6.78;5.47;;;19.60;99.90;;;;;;4993610;28;20034;-41
2021/09/10 05:57:27;;;;;;;8.10;6.13;;;19.20;99.90;;;;;;4995213;28;20496;-42
2021/09/10 05:59:56;;;;;;;8.98;6.15;;;19.00;99.90;;;;;;4994789;28;20029;-40
2021/09/10 06:02:22;;;;;;;7.82;6.00;;;19.30;99.90;;;;;;4994911;28;20030;-44
2021/09/10 06:04:48;;;;;;;6.65;5.95;;;19.60;99.90;;;;;;4994821;28;20014;-42
2021/09/10 06:07:14;;;;;;;10.57;6.15;;;19.70;99.90;;;;;;4993651;28;20026;-46
2021/09/10 06:09:43;;;;;;;5.90;5.03;;;19.60;99.90;;;;;;4993327;28;20037;-42
2021/09/10 06:12:08;;;;;;;10.75;5.75;;;19.90;99.90;;;;;;4994854;28;20045;-43
2021/09/10 06:14:34;;;;;;;9.32;5.60;;;20.80;99.90;;;;;;4984385;28;20455;-42
2021/09/10 06:17:00;;;;;;;8.48;5.75;;;21.80;99.90;;;;;;4975390;28;20027;-44
2021/09/10 06:19:26;;;;;;;9.18;5.63;;;22.70;99.90;;;;;;4975186;28;20121;-44
2021/09/10 06:21:52;;;;;;;12.27;5.78;;;23.50;99.90;;;;;;4975134;28;20066;-43
2021/09/10 06:24:18;;;;;;;7.40;5.95;;;24.20;99.90;;;;;;4973268;28;20182;-42
2021/09/10 06:26:43;;;;;;;7.90;6.78;;;24.80;99.90;;;;;;4975001;28;20023;-43
2021/09/10 06:29:10;;;;;;;8.68;5.60;;;25.50;99.90;;;;;;4975054;28;20019;-41
2021/09/10 06:31:42;;;;;;;10.20;5.72;;;26.10;99.90;;;;;;4974960;28;20029;-45
2021/09/10 06:34:10;;;;;;;6.75;6.03;;;26.60;98.40;;;;;;4975095;28;20089;-41
2021/09/10 06:36:38;;;;;;;18.00;6.63;;;27.00;90.50;;;;;;4974917;28;20030;-43
2021/09/10 06:39:07;;;;;;;11.30;7.13;;;27.30;92.40;;;;;;4972317;28;20126;-43
2021/09/10 06:41:32;;;;;;;7.78;6.10;;;27.70;87.50;;;;;;4974742;28;20490;-41
2021/09/10 06:43:58;;;;;;;10.60;6.65;;;28.10;88.90;;;;;;4991851;28;20038;-41
2021/09/10 06:46:23;;;;;;;9.18;5.43;;;28.50;87.00;;;;;;4993805;28;20462;-43
2021/09/10 06:48:49;;;;;;;8.48;5.90;;;28.90;82.40;;;;;;4994194;28;20031;-44
2021/09/10 06:51:14;;;;;;;9.95;6.88;;;29.40;80.60;;;;;;4993952;28;20033;-43
2021/09/10 06:53:40;;;;;;;7.93;6.47;;;29.40;73.70;;;;;;4992772;28;20077;-43
2021/09/10 06:56:05;;;;;;;9.15;5.57;;;29.70;72.40;;;;;;4993954;28;20042;-41
2021/09/10 06:58:31;;;;;;;9.75;6.43;;;30.00;71.40;;;;;;4994099;28;20038;-41
2021/09/10 07:00:57;;;;;;;9.27;6.43;;;30.40;66.60;;;;;;4993641;28;20026;-42
2021/09/10 07:03:22;;;;;;;11.65;6.88;;;30.60;65.10;;;;;;4993942;28;20041;-42
2021/09/10 07:05:48;;;;;;;8.02;6.70;;;30.80;63.00;;;;;;4993622;28;20149;-44
2021/09/10 07:08:13;;;;;;;8.50;7.07;;;31.00;59.50;;;;;;4993421;28;20037;-45
2021/09/10 07:10:39;;;;;;;9.60;7.80;;;31.30;57.70;;;;;;4993070;28;20397;-43
2021/09/10 07:13:05;;;;;;;9.32;7.13;;;31.50;54.30;;;;;;4993697;28;20022;-42
2021/09/10 07:15:31;;;;;;;7.32;6.63;;;31.40;53.00;;;;;;4975750;28;20041;-45
2021/09/10 07:17:56;;;;;;;8.55;6.45;;;31.60;51.40;;;;;;4974166;28;20090;-43
2021/09/10 07:20:22;;;;;;;10.95;7.70;;;31.80;50.40;;;;;;4974088;28;20035;-43
2021/09/10 07:22:47;;;;;;;9.82;8.18;;;32.10;49.30;;;;;;4974047;28;20134;-43
2021/09/10 07:25:13;;;;;;;8.82;7.15;;;32.60;47.20;;;;;;4972860;28;20100;-45
2021/09/10 07:27:38;;;;;;;7.35;6.65;;;32.40;44.40;;;;;;4974195;28;20474;-46
2021/09/10 07:30:04;;;;;;;11.18;7.60;;;32.80;44.70;;;;;;4974090;28;20430;-41
2021/09/10 07:32:30;;;;;;;9.00;6.80;;;32.80;41.20;;;;;;4973860;28;20027;-42
2021/09/10 07:34:56;;;;;;;9.32;7.10;;;33.00;42.30;;;;;;4974025;28;20037;-42
2021/09/10 07:37:27;;;;;;;7.28;6.57;;;33.30;42.10;;;;;;4973048;28;20382;-45
2021/09/10 07:39:53;;;;;;;6.97;6.28;;;33.40;41.00;;;;;;4972756;28;20050;-43
2021/09/10 07:42:19;;;;;;;6.80;6.10;;;33.80;40.60;;;;;;4977796;28;20040;-43
2021/09/10 07:44:45;;;;;;;8.02;6.10;;;33.90;39.60;;;;;;4993321;28;20478;-43
2021/09/10 07:47:13;;;;;;;10.75;7.93;;;34.00;37.80;;;;;;4993009;28;20515;-43
2021/09/10 07:49:42;;;;;;;9.68;6.82;;;34.10;36.30;;;;;;4993417;28;20023;-44
2021/09/10 07:52:08;;;;;;;6.85;6.15;;;34.40;35.00;;;;;;4993130;28;20023;-42
2021/09/10 07:54:33;;;;;;;7.55;6.32;;;34.70;35.90;;;;;;4991980;28;20389;-44
2021/09/10 07:56:59;;;;;;;7.68;6.72;;;34.70;34.40;;;;;;4993111;28;20039;-42
2021/09/10 07:59:24;;;;;;;8.65;6.40;;;34.70;33.70;;;;;;4993290;28;20069;-44
2021/09/10 08:01:50;;;;;;;6.18;5.65;;;34.90;33.00;;;;;;4992877;28;20066;-42
2021/09/10 08:04:15;;;;;;;10.55;7.07;;;35.20;32.60;;;;;;4993131;28;20077;-42
2021/09/10 08:06:41;;;;;;;7.00;6.10;;;35.30;31.50;;;;;;4993086;28;20030;-42
2021/09/10 08:09:09;;;;;;;14.95;9.52;;;35.30;31.40;;;;;;4991932;28;20030;-42
2021/09/10 08:11:34;;;;;;;7.03;6.32;;;35.50;30.40;;;;;;4993077;28;20031;-42
2021/09/10 08:14:07;;;;;;;7.97;5.68;;;35.60;30.60;;;;;;4987444;28;20019;-43
2021/09/10 08:16:34;;;;;;;9.35;6.57;;;35.90;30.00;;;;;;4973525;28;20031;-44
2021/09/10 08:18:59;;;;;;;6.18;5.57;;;35.90;29.00;;;;;;4973473;28;20027;-43
2021/09/10 08:21:25;;;;;;;6.43;5.82;;;35.70;28.50;;;;;;4973561;28;20019;-43
2021/09/10 08:23:50;;;;;;;7.65;5.75;;;35.80;28.70;;;;;;4972276;28;20027;-44
2021/09/10 08:26:17;;;;;;;6.60;5.68;;;35.90;28.60;;;;;;4973496;28;20069;-43
2021/09/10 08:28:42;;;;;;;6.30;5.70;;;36.00;28.20;;;;;;4973640;28;20027;-47
2021/09/10 08:31:14;;;;;;;6.53;5.80;;;35.70;27.50;;;;;;4973359;28;20030;-41
2021/09/10 08:33:40;;;;;;;8.95;6.93;;;35.50;27.70;;;;;;4971948;28;20031;-41
2021/09/10 08:36:05;;;;;;;10.27;7.57;;;35.40;27.40;;;;;;4973312;28;20035;-44
2021/09/10 08:38:31;;;;;;;7.78;6.32;;;35.20;26.80;;;;;;4972224;28;20315;-44
2021/09/10 08:41:00;;;;;;;7.10;6.38;;;34.80;27.10;;;;;;4972079;28;20041;-43
2021/09/10 08:43:26;;;;;;;6.30;5.70;;;35.00;27.70;;;;;;4984745;28;20030;-45
2021/09/10 08:45:55;;;;;;;7.20;5.78;;;35.50;27.40;;;;;;4992817;28;20106;-44
2021/09/10 08:48:24;;;;;;;8.35;5.70;;;35.90;26.90;;;;;;4994502;28;20423;-45
2021/09/10 08:50:53;;;;;;;7.38;5.35;;;36.10;26.60;;;;;;4996382;28;20370;-42
2021/09/10 08:53:18;;;;;;;6.38;5.57;;;36.40;26.30;;;;;;4993633;28;20508;-43
2021/09/10 08:55:44;;;;;;;6.35;4.90;;;36.50;26.00;;;;;;4996193;28;20034;-42
2021/09/10 08:58:09;;;;;;;7.03;6.30;;;36.60;25.90;;;;;;4994648;28;20038;-41
2021/09/10 09:00:37;;;;;;;6.50;5.63;;;36.80;25.40;;;;;;4996129;28;20031;-43
2021/09/10 09:03:08;;;;;;;7.97;6.28;;;36.80;25.20;;;;;;4994494;28;20026;-42
2021/09/10 09:05:34;;;;;;;7.38;5.95;;;36.50;24.40;;;;;;4996096;28;20029;-46
2021/09/10 09:08:10;;;;;;;6.32;5.72;;;36.70;25.00;;;;;;4995848;28;20413;-44
2021/09/10 09:10:57;;;;;;;8.40;6.80;;;36.70;24.50;;;;;;4994239;28;20418;-44
2021/09/10 09:13:56;;;;;;;9.15;7.97;;;36.50;24.10;;;;;;4995140;28;20026;-48
2021/09/10 09:16:24;;;;;;;7.40;6.70;;;36.40;24.10;;;;;;4969001;28;20503;-45
2021/09/10 09:18:55;;;;;;;6.82;6.13;;;36.10;24.70;;;;;;4976289;28;20027;-47
2021/09/10 09:21:26;;;;;;;8.68;7.75;;;36.00;25.00;;;;;;4976383;28;20588;-47
2021/09/10 09:23:57;;;;;;;7.45;6.72;;;35.50;24.90;;;;;;4973484;28;20058;-44
2021/09/10 09:26:28;;;;;;;9.57;6.45;;;35.50;25.10;;;;;;4976426;28;20217;-42
2021/09/10 09:29:05;;;;;;;6.82;5.80;;;35.40;25.40;;;;;;4976207;28;20150;-44
2021/09/10 09:31:30;;;;;;;8.77;6.25;;;35.50;25.50;;;;;;4976216;28;20343;-43
2021/09/10 09:33:56;;;;;;;7.55;6.22;;;35.60;25.30;;;;;;4976222;28;20039;-47
2021/09/10 09:36:21;;;;;;;8.85;6.78;;;35.70;25.30;;;;;;4976031;28;20123;-44
2021/09/10 09:38:47;;;;;;;10.70;7.57;;;35.60;25.00;;;;;;4974723;28;20465;-44
2021/09/10 09:41:17;;;;;;;8.65;6.43;;;35.50;25.00;;;;;;4975925;28;20031;-46
2021/09/10 09:43:48;;;;;;;7.13;6.45;;;35.40;25.30;;;;;;4990985;28;20041;-46
2021/09/10 09:46:16;;;;;;;9.02;6.78;;;35.30;25.40;;;;;;4995254;28;20054;-41
2021/09/10 09:48:45;;;;;;;8.80;6.88;;;34.90;25.50;;;;;;4994968;28;20090;-43
2021/09/10 09:51:15;;;;;;;6.45;5.85;;;34.70;26.70;;;;;;4995226;28;20168;-43
2021/09/10 09:53:42;;;;;;;7.88;7.07;;;34.50;26.20;;;;;;4993917;28;20466;-44
2021/09/10 09:56:09;;;;;;;9.85;6.32;;;34.30;26.50;;;;;;4995051;28;20046;-46
2021/09/10 09:58:39;;;;;;;8.93;6.28;;;34.20;26.90;;;;;;4994641;28;20030;-45
2021/09/10 10:01:05;;;;;;;6.72;5.68;;;34.00;27.30;;;;;;4994710;28;20474;-46
2021/09/10 10:03:32;;;;;;;7.03;5.63;;;33.90;27.50;;;;;;4994880;28;20081;-43
2021/09/10 10:06:10;;;;;;;7.85;6.28;;;33.70;28.20;;;;;;4995001;28;20019;-43
2021/09/10 10:09:07;;;;;;;7.80;6.55;;;33.60;28.40;;;;;;4993546;28;20551;-42
2021/09/10 10:11:44;;;;;;;9.38;6.30;;;33.30;28.60;;;;;;4994932;28;20030;-45
2021/09/10 10:14:15;;;;;;;9.00;6.80;;;32.80;30.40;;;;;;4987780;28;20023;-42
2021/09/10 10:16:45;;;;;;;11.20;7.20;;;32.30;31.00;;;;;;4975609;28;20386;-42
2021/09/10 10:19:25;;;;;;;12.60;7.32;;;31.70;32.60;;;;;;4975021;28;20058;-46
2021/09/10 10:22:05;;;;;;;13.45;9.38;;;31.40;33.90;;;;;;4975282;28;20070;-47
2021/09/10 10:24:50;;;;;;;8.63;7.25;;;31.00;35.50;;;;;;4973805;28;20426;-46
2021/09/10 10:27:35;;;;;;;7.43;6.63;;;30.70;37.90;;;;;;4975039;28;20430;-46
2021/09/10 10:30:08;;;;;;;8.35;6.18;;;30.50;38.50;;;;;;4975225;28;20138;-40
2021/09/10 10:32:39;;;;;;;9.35;6.95;;;30.20;38.10;;;;;;4973513;28;20026;-43
2021/09/10 10:35:23;;;;;;;7.38;5.95;;;30.00;39.70;;;;;;4974854;28;20033;-40
2021/09/10 10:38:03;;;;;;;7.57;5.75;;;29.80;40.00;;;;;;4974863;28;20023;-44
2021/09/10 10:40:33;;;;;;;7.93;6.47;;;29.70;40.10;;;;;;4973655;28;20414;-41
2021/09/10 10:43:03;;;;;;;8.75;6.10;;;29.50;41.20;;;;;;4980773;28;20050;-43
2021/09/10 10:45:40;;;;;;;8.63;6.55;;;29.40;42.20;;;;;;4985546;28;20363;-44
2021/09/10 10:48:34;;;;;;;8.05;6.25;;;29.20;43.30;;;;;;4991795;28;20054;-42
2021/09/10 10:51:04;;;;;;;5.88;5.30;;;29.10;44.20;;;;;;4992025;28;20030;-45
2021/09/10 10:53:45;;;;;;;8.55;5.70;;;28.90;43.10;;;;;;4990758;28;20080;-44
2021/09/10 10:56:32;;;;;;;9.05;6.03;;;28.90;44.60;;;;;;4990940;28;20042;-41
2021/09/10 10:59:21;;;;;;;5.05;4.53;;;28.70;45.60;;;;;;4992119;28;20022;-45
2021/09/10 11:02:14;;;;;;;6.65;5.78;;;28.70;45.60;;;;;;4991890;28;20069;-43
2021/09/10 11:04:41;;;;;;;9.63;5.63;;;28.70;45.80;;;;;;4992108;28;20037;-46
2021/09/10 11:07:07;;;;;;;8.05;5.55;;;28.60;45.40;;;;;;4991797;28;20026;-43
2021/09/10 11:09:33;;;;;;;6.40;5.80;;;28.70;46.60;;;;;;4990887;28;20030;-46
2021/09/10 11:11:58;;;;;;;9.88;5.43;;;28.60;46.40;;;;;;4991867;28;20022;-43
2021/09/10 11:14:41;;;;;;;6.65;5.03;;;28.60;46.90;;;;;;4991765;28;20034;-41
2021/09/10 11:17:10;;;;;;;7.25;5.15;;;28.70;47.10;;;;;;4991674;28;20432;-46
2021/09/10 11:19:37;;;;;;;6.03;5.00;;;28.70;47.30;;;;;;4991829;28;20536;-47
2021/09/10 11:22:02;;;;;;;7.10;6.07;;;28.70;46.70;;;;;;4991740;28;20034;-41
2021/09/10 11:24:31;;;;;;;7.57;6.00;;;28.60;47.30;;;;;;4990320;28;20027;-42
2021/09/10 11:26:57;;;;;;;11.43;6.18;;;28.50;48.60;;;;;;4991685;28;20038;-42
2021/09/10 11:29:22;;;;;;;9.07;6.03;;;28.50;48.60;;;;;;4991640;28;20076;-41
2021/09/10 11:31:48;;;;;;;7.25;5.93;;;28.40;48.30;;;;;;4990313;28;20113;-43
2021/09/10 11:34:34;;;;;;;5.93;5.32;;;28.40;48.70;;;;;;4991565;28;20045;-44
2021/09/10 11:37:02;;;;;;;5.93;5.37;;;28.30;48.80;;;;;;4991617;28;20045;-45
2021/09/10 11:39:42;;;;;;;9.25;5.85;;;28.20;50.00;;;;;;4990074;28;20030;-45
2021/09/10 11:42:10;;;;;;;5.20;4.47;;;28.20;50.00;;;;;;4990095;28;20029;-42
2021/09/10 11:44:37;;;;;;;5.97;4.95;;;28.10;49.90;;;;;;4991386;28;20034;-40
2021/09/10 11:47:03;;;;;;;5.40;4.90;;;28.10;50.20;;;;;;4991388;28;20505;-44
2021/09/10 11:49:28;;;;;;;8.60;5.47;;;28.10;50.40;;;;;;4991435;28;20029;-40
2021/09/10 11:51:54;;;;;;;8.48;5.45;;;28.20;51.10;;;;;;4991170;28;20065;-44
2021/09/10 11:54:21;;;;;;;10.30;6.07;;;28.20;51.30;;;;;;4988708;28;20500;-41
2021/09/10 11:56:48;;;;;;;7.88;5.15;;;28.20;50.60;;;;;;4991525;28;20031;-43
2021/09/10 11:59:26;;;;;;;5.75;4.93;;;28.20;51.30;;;;;;4991238;28;20104;-41
2021/09/10 12:01:53;;;;;;;7.05;5.47;;;28.10;53.10;;;;;;4991585;28;20030;-45
2021/09/10 12:04:28;;;;;;;7.80;5.78;;;28.20;51.50;;;;;;4991001;28;20056;-44
2021/09/10 12:06:58;;;;;;;5.80;5.20;;;28.20;52.10;;;;;;4990195;28;20034;-42
2021/09/10 12:09:26;;;;;;;5.35;4.75;;;28.20;51.20;;;;;;4989960;28;20438;-43
2021/09/10 12:12:03;;;;;;;6.85;5.05;;;28.30;51.20;;;;;;4991432;28;20031;-41
2021/09/10 12:14:43;;;;;;;5.95;4.65;;;28.40;51.20;;;;;;4990924;28;20504;-43
2021/09/10 12:17:13;;;;;;;7.53;5.75;;;28.50;50.90;;;;;;4991274;28;20498;-44
2021/09/10 12:19:54;;;;;;;7.80;5.45;;;28.50;51.20;;;;;;4991038;28;20059;-43
2021/09/10 12:22:48;;;;;;;5.68;5.10;;;28.40;50.20;;;;;;4977625;28;20031;-42
2021/09/10 12:25:18;;;;;;;9.00;6.10;;;28.40;52.30;;;;;;4993917;28;20030;-42
2021/09/10 12:27:44;;;;;;;6.47;5.25;;;28.40;50.40;;;;;;4995038;28;20081;-41
2021/09/10 12:30:12;;;;;;;6.65;4.70;;;28.50;50.50;;;;;;4995091;28;20162;-41
2021/09/10 12:32:38;;;;;;;5.30;4.80;;;28.50;50.80;;;;;;4994862;28;20498;-47
2021/09/10 12:35:04;;;;;;;10.52;6.50;;;28.50;50.70;;;;;;4994802;28;20038;-41
2021/09/10 12:37:30;;;;;;;7.72;6.03;;;28.50;51.50;;;;;;4994609;28;20034;-41
2021/09/10 12:39:55;;;;;;;7.68;5.72;;;28.40;51.90;;;;;;4993520;28;20036;-41
2021/09/10 12:42:21;;;;;;;8.88;5.97;;;28.40;52.00;;;;;;4994534;28;20034;-44
2021/09/10 12:44:46;;;;;;;9.75;7.05;;;28.40;52.20;;;;;;4995051;28;20394;-42
2021/09/10 12:47:12;;;;;;;10.40;5.88;;;28.40;51.50;;;;;;4996359;28;20089;-42